Etusivu
METAR-TAF:

METAR-TAF

Lentoasemat :

Port Sudan, Sudan

Leveyspiiri: 19-26N, Pituuspiiri: 037-14E, korkeus merenpinnasta: 138 m

METAR: puuttuu

Aika: 00:47 (22:47 UTC)

Sääennuste

Tämä raportti tehtiin 5 tuntia ja 47 minuuttia sitten, kello 17.00 UTC
Ennuste voimassa 08. päivästä klo 18 UTC - 09. päivään klo 24 UTC
Tuuli 10 kn lännestä puuskistuen 20 kn:hen
Näkyvyys 10 km tai enemmän
Muutamia pilviä 3000 ft:n korkeudessa
Hajanaisia pilviä 13000 ft:n korkeudessa

TAF: HSPN 081700Z 0818/0924 27010G20KT 9999 FEW030 SCT130

Säähavainnot ja -ennusteet yli 4000 lentoasemalta (METAR- ja TAF-raportit).

Käytössä olevat sääasemat on merkitty karttaan keltaisilla ja punaisilla pisteillä.

Aseta hiiri pisteen päälle nähdäksesi sääaseman nimen.

Klikkaa sitten nähdäksesi säähavainnot ja -ennusteet.

Kartan vaihtaminen: klikkaa mustalla rastilla varustettuja vihreitä pisteitä, niin voit zoomata sisään; viivalla varustettua vihreää pistettä, niin voit zoomata ulos tai vihreitä nuolia, niin pääset viereisille kartoille.


METAR-TAF: